createdAt,value
2016-05-19T00:00:09.960Z,87.15
2016-05-19T00:01:10.088Z,87.06
2016-05-19T00:02:09.934Z,86.49
2016-05-19T00:03:09.968Z,86.77
2016-05-19T00:04:09.893Z,87.11
2016-05-19T00:05:09.880Z,87.06
2016-05-19T00:06:09.867Z,87.49
2016-05-19T00:07:09.853Z,86.92
2016-05-19T00:08:10.122Z,86.77
2016-05-19T00:09:09.844Z,87.11
2016-05-19T00:10:09.659Z,86.92
2016-05-19T00:11:09.803Z,86.92
2016-05-19T00:12:09.789Z,86.82
2016-05-19T00:13:09.792Z,87.02
2016-05-19T00:14:09.764Z,87.11
2016-05-19T00:15:09.751Z,87.11
2016-05-19T00:16:09.722Z,86.63
2016-05-19T00:17:09.709Z,87.21
2016-05-19T00:18:09.712Z,87.4
2016-05-19T00:19:09.683Z,87.3
2016-05-19T00:20:09.874Z,87.4
2016-05-19T00:21:09.657Z,87.4
2016-05-19T00:22:09.644Z,87.87
2016-05-19T00:23:10.085Z,87.87
2016-05-19T00:24:09.634Z,87.87
2016-05-19T00:25:09.450Z,87.87
2016-05-19T00:26:09.593Z,87.87
2016-05-19T00:27:09.579Z,87.59
2016-05-19T00:28:09.567Z,87.87
2016-05-19T00:29:09.398Z,87.97
2016-05-19T00:30:09.541Z,88.54
2016-05-19T00:31:09.528Z,88.45
2016-05-19T00:32:09.515Z,88.35
2016-05-19T00:33:09.501Z,88.07
2016-05-19T00:34:09.489Z,88.26
2016-05-19T00:35:09.461Z,88.16
2016-05-19T00:36:09.448Z,88.26
2016-05-19T00:37:09.435Z,88.73
2016-05-19T00:38:09.703Z,88.54
2016-05-19T00:39:09.409Z,88.26
2016-05-19T00:40:09.396Z,88.45
2016-05-19T00:41:09.383Z,88.35
2016-05-19T00:42:09.370Z,88.45
2016-05-19T00:43:09.201Z,88.54
2016-05-19T00:44:09.188Z,88.26
2016-05-19T00:45:09.331Z,88.73
2016-05-19T00:46:09.319Z,89.16
2016-05-19T00:47:09.305Z,89.02
2016-05-19T00:48:09.292Z,88.73
2016-05-19T00:49:09.264Z,88.87
2016-05-19T00:50:09.251Z,89.06
2016-05-19T00:51:09.238Z,89.06
2016-05-19T00:52:09.241Z,88.97
2016-05-19T00:53:09.212Z,89.06
2016-05-19T00:54:09.199Z,88.97
2016-05-19T00:55:09.186Z,88.78
2016-05-19T00:56:09.174Z,88.78
2016-05-19T00:57:09.177Z,89.25
2016-05-19T00:58:09.148Z,89.25
2016-05-19T00:59:09.134Z,89.06
2016-05-19T01:00:09.122Z,89.16
2016-05-19T01:01:08.952Z,88.87
2016-05-19T01:02:09.095Z,88.59
2016-05-19T01:03:09.082Z,88.4
2016-05-19T01:04:09.070Z,88.59
2016-05-19T01:05:09.057Z,88.68
2016-05-19T01:06:09.060Z,89.25
2016-05-19T01:07:09.031Z,89.06
2016-05-19T01:08:09.315Z,89.16
2016-05-19T01:09:08.990Z,88.68
2016-05-19T01:10:08.976Z,88.2
2016-05-19T01:11:08.964Z,88.4
2016-05-19T01:12:08.950Z,88.2
2016-05-19T01:13:08.938Z,88.49
2016-05-19T01:14:08.925Z,88.4
2016-05-19T01:15:08.912Z,88.4
2016-05-19T01:16:08.899Z,88.2
2016-05-19T01:17:08.886Z,88.4
2016-05-19T01:18:08.873Z,88.2
2016-05-19T01:19:08.876Z,87.92
2016-05-19T01:20:08.847Z,87.82
2016-05-19T01:21:08.834Z,88.49
2016-05-19T01:22:08.822Z,87.82
2016-05-19T01:23:08.809Z,88.4
2016-05-19T01:24:08.780Z,88.59
2016-05-19T01:25:08.766Z,88.59
2016-05-19T01:26:08.754Z,88.59
2016-05-19T01:27:08.757Z,88.49
2016-05-19T01:28:08.744Z,88.4
2016-05-19T01:29:08.715Z,88.11
2016-05-19T01:30:08.702Z,88.4
2016-05-19T01:31:08.690Z,88.97
2016-05-19T01:32:08.676Z,89.06
2016-05-19T01:33:08.663Z,89.06
2016-05-19T01:34:08.666Z,88.49
2016-05-19T01:35:08.653Z,88.11
2016-05-19T01:36:08.625Z,88.2
2016-05-19T01:37:08.612Z,88.49
2016-05-19T01:38:08.598Z,87.82
2016-05-19T01:39:08.587Z,88.01
2016-05-19T01:40:08.572Z,87.73
2016-05-19T01:41:08.559Z,88.3
2016-05-19T01:42:08.547Z,88.2
2016-05-19T01:43:08.534Z,88.4
2016-05-19T01:44:08.522Z,88.2
2016-05-19T01:45:08.509Z,88.49
2016-05-19T01:46:08.480Z,88.11
2016-05-19T01:47:08.467Z,88.59
2016-05-19T01:48:08.453Z,88.2
2016-05-19T01:49:08.456Z,88.11
2016-05-19T01:50:08.459Z,88.35
2016-05-19T01:51:08.416Z,88.35
2016-05-19T01:52:08.402Z,88.16
2016-05-19T01:53:08.233Z,88.26
2016-05-19T01:54:08.377Z,88.35
2016-05-19T01:55:08.363Z,88.26
2016-05-19T01:56:08.350Z,88.35
2016-05-19T01:57:08.338Z,88.26
2016-05-19T01:58:08.324Z,88.35
2016-05-19T01:59:08.312Z,88.16
2016-05-19T02:00:08.299Z,88.16
2016-05-19T02:01:08.285Z,89.21
2016-05-19T02:02:08.273Z,89.21
2016-05-19T02:03:08.103Z,88.83
2016-05-19T02:04:08.090Z,88.45
2016-05-19T02:05:08.235Z,88.73
2016-05-19T02:06:08.221Z,88.07
2016-05-19T02:07:08.208Z,88.16
2016-05-19T02:08:08.382Z,88.35
2016-05-19T02:09:08.167Z,88.45
2016-05-19T02:10:08.154Z,88.64
2016-05-19T02:11:08.141Z,88.88
2016-05-19T02:12:08.143Z,88.4
2016-05-19T02:13:08.115Z,89.4
2016-05-19T02:14:08.103Z,88.83
2016-05-19T02:15:08.089Z,89.02
2016-05-19T02:16:08.076Z,89.12
2016-05-19T02:17:08.063Z,88.98
2016-05-19T02:18:08.050Z,88.98
2016-05-19T02:19:08.022Z,89.26
2016-05-19T02:20:08.024Z,89.36
2016-05-19T02:21:08.011Z,89.17
2016-05-19T02:22:07.983Z,88.59
2016-05-19T02:23:08.313Z,88.69
2016-05-19T02:24:07.957Z,88.5
2016-05-19T02:25:07.999Z,88.59
2016-05-19T02:26:07.939Z,88.78
2016-05-19T02:27:07.926Z,88.69
2016-05-19T02:28:07.897Z,88.98
2016-05-19T02:29:07.900Z,88.98
2016-05-19T02:30:07.888Z,89.07
2016-05-19T02:31:07.858Z,88.78
2016-05-19T02:32:07.861Z,88.69
2016-05-19T02:33:07.832Z,88.98
2016-05-19T02:34:07.820Z,88.98
2016-05-19T02:35:07.823Z,89.26
2016-05-19T02:36:07.794Z,89.17
2016-05-19T02:37:07.781Z,89.07
2016-05-19T02:38:07.987Z,88.98
2016-05-19T02:39:07.740Z,89.36
2016-05-19T02:40:07.789Z,89.22
2016-05-19T02:41:07.742Z,89.5
2016-05-19T02:42:07.772Z,88.84
2016-05-19T02:43:07.646Z,88.64
2016-05-19T02:44:07.849Z,89.22
2016-05-19T02:45:07.864Z,89.22
2016-05-19T02:46:07.875Z,89.5
2016-05-19T02:47:07.879Z,89.45
2016-05-19T02:48:07.865Z,89.12
2016-05-19T02:49:07.868Z,89.12
2016-05-19T02:50:07.870Z,89.17
2016-05-19T02:51:07.866Z,90.03
2016-05-19T02:52:07.859Z,89.17
2016-05-19T02:53:08.399Z,89.83
2016-05-19T02:54:07.844Z,89.93
2016-05-19T02:55:07.681Z,89.31
2016-05-19T02:56:07.687Z,90.03
2016-05-19T02:57:07.817Z,89.26
2016-05-19T02:58:07.805Z,89.17
2016-05-19T02:59:07.779Z,89.98
2016-05-19T03:00:07.768Z,89.22
2016-05-19T03:01:07.757Z,89.31
2016-05-19T03:02:07.760Z,89.31
2016-05-19T03:03:07.732Z,89.4
2016-05-19T03:04:07.720Z,89.31
2016-05-19T03:05:07.551Z,89.31
2016-05-19T03:06:07.696Z,89.6
2016-05-19T03:07:07.714Z,89.31
2016-05-19T03:08:07.669Z,90.45
2016-05-19T03:09:07.720Z,91.13
2016-05-19T03:10:07.707Z,90.64
2016-05-19T03:11:07.616Z,90.93
2016-05-19T03:12:07.603Z,91.22
2016-05-19T03:13:07.591Z,91.31
2016-05-19T03:14:07.562Z,90.84
2016-05-19T03:15:07.565Z,91.13
2016-05-19T03:16:07.567Z,91.5
2016-05-19T03:17:07.555Z,90.84
2016-05-19T03:18:07.511Z,90.84
2016-05-19T03:19:07.513Z,91.13
2016-05-19T03:20:07.485Z,91.03
2016-05-19T03:21:07.488Z,90.84
2016-05-19T03:22:07.458Z,91.13
2016-05-19T03:23:07.821Z,90.64
2016-05-19T03:24:07.417Z,90.36
2016-05-19T03:25:07.263Z,90.93
2016-05-19T03:26:07.391Z,90.84
2016-05-19T03:27:07.425Z,91.03
2016-05-19T03:28:07.381Z,90.93
2016-05-19T03:29:07.368Z,90.74
2016-05-19T03:30:07.340Z,90.36
2016-05-19T03:31:07.342Z,90.45
2016-05-19T03:32:07.298Z,90.08
2016-05-19T03:33:07.301Z,90.41
2016-05-19T03:34:07.273Z,90.31
2016-05-19T03:35:07.260Z,90.31
2016-05-19T03:36:07.246Z,90.31
2016-05-19T03:37:07.234Z,90.5
2016-05-19T03:38:07.220Z,90.5
2016-05-19T03:39:07.050Z,90.41
2016-05-19T03:40:07.195Z,90.6
2016-05-19T03:41:07.181Z,90.12
2016-05-19T03:42:07.153Z,90.7
2016-05-19T03:43:06.983Z,90.89
2016-05-19T03:44:07.127Z,90.98
2016-05-19T03:45:06.958Z,90.89
2016-05-19T03:46:07.101Z,90.7
2016-05-19T03:47:06.932Z,90.7
2016-05-19T03:48:07.075Z,91.17
2016-05-19T03:49:07.078Z,90.98
2016-05-19T03:50:07.034Z,90.79
2016-05-19T03:51:07.036Z,90.79
2016-05-19T03:52:07.008Z,90.89
2016-05-19T03:53:07.433Z,91.08
2016-05-19T03:54:06.983Z,91.08
2016-05-19T03:55:06.969Z,91.08
2016-05-19T03:56:06.972Z,91.08
2016-05-19T03:57:06.943Z,91.27
2016-05-19T03:58:06.915Z,91.08
2016-05-19T03:59:06.918Z,90.5
2016-05-19T04:00:06.889Z,90.79
2016-05-19T04:01:06.876Z,90.98
2016-05-19T04:02:06.706Z,91.08
2016-05-19T04:03:06.850Z,90.89
2016-05-19T04:04:06.837Z,90.98
2016-05-19T04:05:06.668Z,90.89
2016-05-19T04:06:06.795Z,90.98
2016-05-19T04:07:06.783Z,90.79
2016-05-19T04:08:07.239Z,90.79
2016-05-19T04:09:06.757Z,90.7
2016-05-19T04:10:06.745Z,90.79
2016-05-19T04:11:06.575Z,91.65
2016-05-19T04:12:06.703Z,90.89
2016-05-19T04:13:06.690Z,91.55
2016-05-19T04:14:06.677Z,91.46
2016-05-19T04:15:06.679Z,91.46
2016-05-19T04:16:06.650Z,91.27
2016-05-19T04:17:06.638Z,91.27
2016-05-19T04:18:06.625Z,91.46
2016-05-19T04:19:06.611Z,91.27
2016-05-19T04:20:06.583Z,91.55
2016-05-19T04:21:06.570Z,91.46
2016-05-19T04:22:06.557Z,91.27
2016-05-19T04:23:06.560Z,91.27
2016-05-19T04:24:06.532Z,91.55
2016-05-19T04:25:06.519Z,91.36
2016-05-19T04:26:06.505Z,91.74
2016-05-19T04:27:06.477Z,91.74
2016-05-19T04:28:06.465Z,91.84
2016-05-19T04:29:06.296Z,91.84
2016-05-19T04:30:06.438Z,92.03
2016-05-19T04:31:06.426Z,92.22
2016-05-19T04:32:06.413Z,92.03
2016-05-19T04:33:06.399Z,92.03
2016-05-19T04:34:06.387Z,92.22
2016-05-19T04:35:06.358Z,91.84
2016-05-19T04:36:06.345Z,91.84
2016-05-19T04:37:06.332Z,92.03
2016-05-19T04:38:06.319Z,91.98
2016-05-19T04:39:06.307Z,91.98
2016-05-19T04:40:06.293Z,92.08
2016-05-19T04:41:06.280Z,92.36
2016-05-19T04:42:06.253Z,91.79
2016-05-19T04:43:06.255Z,91.98
2016-05-19T04:44:06.242Z,91.98
2016-05-19T04:45:06.228Z,91.88
2016-05-19T04:46:06.200Z,91.88
2016-05-19T04:47:06.186Z,91.88
2016-05-19T04:48:06.175Z,92.08
2016-05-19T04:49:06.161Z,92.08
2016-05-19T04:50:06.149Z,92.08
2016-05-19T04:51:05.980Z,91.98
2016-05-19T04:52:06.107Z,92.27
2016-05-19T04:53:06.297Z,91.69
2016-05-19T04:54:06.080Z,92.08
2016-05-19T04:55:05.913Z,91.79
2016-05-19T04:56:06.055Z,91.98
2016-05-19T04:57:06.042Z,91.88
2016-05-19T04:58:05.858Z,92.17
2016-05-19T04:59:06.001Z,92.08
2016-05-19T05:00:05.988Z,91.69
2016-05-19T05:01:05.975Z,92.27
2016-05-19T05:02:05.806Z,92.08
2016-05-19T05:03:05.793Z,91.88
2016-05-19T05:04:05.936Z,91.79
2016-05-19T05:05:05.923Z,92.27
2016-05-19T05:06:05.754Z,92.08
2016-05-19T05:07:05.898Z,91.88
2016-05-19T05:08:06.134Z,92.03
2016-05-19T05:09:05.700Z,92.22
2016-05-19T05:10:05.843Z,91.93
2016-05-19T05:11:05.830Z,91.93
2016-05-19T05:12:05.817Z,92.22
2016-05-19T05:13:05.804Z,91.83
2016-05-19T05:14:05.792Z,91.93
2016-05-19T05:15:05.778Z,92.12
2016-05-19T05:16:05.765Z,92.12
2016-05-19T05:17:05.753Z,92.12
2016-05-19T05:18:05.739Z,91.46
2016-05-19T05:19:05.711Z,90.98
2016-05-19T05:20:05.698Z,90.69
2016-05-19T05:21:05.685Z,90.98
2016-05-19T05:22:05.672Z,91.27
2016-05-19T05:23:05.690Z,90.93
2016-05-19T05:24:05.646Z,91.02
2016-05-19T05:25:05.634Z,90.83
2016-05-19T05:26:05.621Z,91.41
2016-05-19T05:27:05.607Z,91.12
2016-05-19T05:28:05.594Z,90.55
2016-05-19T05:29:05.582Z,90.36
2016-05-19T05:30:05.553Z,90.64
2016-05-19T05:31:05.540Z,90.55
2016-05-19T05:32:05.543Z,90.55
2016-05-19T05:33:05.515Z,91.6
2016-05-19T05:34:05.501Z,91.78
2016-05-19T05:35:05.488Z,91.12
2016-05-19T05:36:05.319Z,90.83
2016-05-19T05:37:05.509Z,91.5
2016-05-19T05:38:05.465Z,91.21
2016-05-19T05:39:05.296Z,90.83
2016-05-19T05:40:05.424Z,90.83
2016-05-19T05:41:05.411Z,90.36
2016-05-19T05:42:05.242Z,90.45
2016-05-19T05:43:05.385Z,90.36
2016-05-19T05:44:05.216Z,90.4
2016-05-19T05:45:05.359Z,90.5
2016-05-19T05:46:05.346Z,90.31
2016-05-19T05:47:05.177Z,90.88
2016-05-19T05:48:05.305Z,90.31
2016-05-19T05:49:05.307Z,89.73
2016-05-19T05:50:05.295Z,89.92
2016-05-19T05:51:05.281Z,89.25
2016-05-19T05:52:05.269Z,90.31
2016-05-19T05:53:05.959Z,90.11
2016-05-19T05:54:05.258Z,90.21
2016-05-19T05:55:05.214Z,89.45
2016-05-19T05:56:05.202Z,89.64
2016-05-19T05:57:05.204Z,89.73
2016-05-19T05:58:05.191Z,89.45
2016-05-19T05:59:05.177Z,89.25
2016-05-19T06:00:05.149Z,89.64
2016-05-19T06:01:04.980Z,90.21
2016-05-19T06:02:04.968Z,89.45
2016-05-19T06:03:05.111Z,89.54
2016-05-19T06:04:05.098Z,89.45
2016-05-19T06:05:05.085Z,89.45
2016-05-19T06:06:05.072Z,89.45
2016-05-19T06:07:05.059Z,89.87
2016-05-19T06:08:05.280Z,89.01
2016-05-19T06:09:05.048Z,89.68
2016-05-19T06:10:05.035Z,89.49
2016-05-19T06:11:05.007Z,89.39
2016-05-19T06:12:05.009Z,89.2
2016-05-19T06:13:04.981Z,89.68
2016-05-19T06:14:04.984Z,89.2
2016-05-19T06:15:04.956Z,89.49
2016-05-19T06:16:04.787Z,89.2
2016-05-19T06:17:04.929Z,89.39
2016-05-19T06:18:04.917Z,89.11
2016-05-19T06:19:04.903Z,89.59
2016-05-19T06:20:04.906Z,89.49
2016-05-19T06:21:04.893Z,89.59
2016-05-19T06:22:04.865Z,89.59
2016-05-19T06:23:04.852Z,89.2
2016-05-19T06:24:04.839Z,89.3
2016-05-19T06:25:04.826Z,89.59
2016-05-19T06:26:04.814Z,89.2
2016-05-19T06:27:04.644Z,89.59
2016-05-19T06:28:04.802Z,89.2
2016-05-19T06:29:04.774Z,88.82
2016-05-19T06:30:04.746Z,89.3
2016-05-19T06:31:04.748Z,89.11
2016-05-19T06:32:04.736Z,89.49
2016-05-19T06:33:04.566Z,89.01
2016-05-19T06:34:04.710Z,89.01
2016-05-19T06:35:04.697Z,89.68
2016-05-19T06:36:04.684Z,88.77
2016-05-19T06:37:04.671Z,88.96
2016-05-19T06:38:04.720Z,89.68
2016-05-19T06:39:04.488Z,89.25
2016-05-19T06:40:04.616Z,88.87
2016-05-19T06:41:04.619Z,88.96
2016-05-19T06:42:04.606Z,89.34
2016-05-19T06:43:04.437Z,88.29
2016-05-19T06:44:04.581Z,88.29
2016-05-19T06:45:04.568Z,88.29
2016-05-19T06:46:04.554Z,88.39
2016-05-19T06:47:04.542Z,88.01
2016-05-19T06:48:04.529Z,88.2
2016-05-19T06:49:04.515Z,88.68
2016-05-19T06:50:04.705Z,88.01
2016-05-19T06:51:04.489Z,87.91
2016-05-19T06:52:04.477Z,88.1
2016-05-19T06:53:04.667Z,88.68
2016-05-19T06:54:04.545Z,88.29
2016-05-19T06:55:04.438Z,88.39
2016-05-19T06:56:04.425Z,88.2
2016-05-19T06:57:04.412Z,88.68
2016-05-19T06:58:04.415Z,88.58
2016-05-19T06:59:04.229Z,88.48
2016-05-19T07:00:04.217Z,87.53
2016-05-19T07:01:04.360Z,87.24
2016-05-19T07:02:04.347Z,87.34
2016-05-19T07:03:04.334Z,87.34
2016-05-19T07:04:04.321Z,87.53
2016-05-19T07:05:04.340Z,87.72
2016-05-19T07:06:04.327Z,88.2
2016-05-19T07:07:04.282Z,88.62
2016-05-19T07:08:04.895Z,87.66
2016-05-19T07:09:04.273Z,87.48
2016-05-19T07:10:04.243Z,87
2016-05-19T07:11:04.262Z,86.9
2016-05-19T07:12:04.218Z,87.19
2016-05-19T07:13:04.048Z,86.8
2016-05-19T07:14:04.192Z,86.71
2016-05-19T07:15:04.179Z,85.94
2016-05-19T07:16:04.166Z,86.8
2016-05-19T07:17:04.169Z,86.52
2016-05-19T07:18:04.140Z,87.09
2016-05-19T07:19:04.143Z,86.76
2016-05-19T07:20:03.973Z,86.38
2016-05-19T07:21:04.117Z,87
2016-05-19T07:22:04.104Z,86.57
2016-05-19T07:23:04.091Z,86.76
2016-05-19T07:24:04.063Z,87
2016-05-19T07:25:04.050Z,86.71
2016-05-19T07:26:04.053Z,86.52
2016-05-19T07:27:04.039Z,85.94
2016-05-19T07:28:04.027Z,86.04
2016-05-19T07:29:04.030Z,86.43
2016-05-19T07:30:03.845Z,86.61
2016-05-19T07:31:03.988Z,86.04
2016-05-19T07:32:03.975Z,86.14
2016-05-19T07:33:03.962Z,86.04
2016-05-19T07:34:03.793Z,85.66
2016-05-19T07:35:03.780Z,85.18
2016-05-19T07:36:03.939Z,85.51
2016-05-19T07:37:03.754Z,84.75
2016-05-19T07:38:03.913Z,84.17
2016-05-19T07:39:04.103Z,84.46
2016-05-19T07:40:03.871Z,84.36
2016-05-19T07:41:03.859Z,83.98
2016-05-19T07:42:03.861Z,84.08
2016-05-19T07:43:03.848Z,84.22
2016-05-19T07:44:03.835Z,84.31
2016-05-19T07:45:03.822Z,83.89
2016-05-19T07:46:03.810Z,83.5
2016-05-19T07:47:03.796Z,83.4
2016-05-19T07:48:03.783Z,84.46
2016-05-19T07:49:03.787Z,84.08
2016-05-19T07:50:03.602Z,84.17
2016-05-19T07:51:03.761Z,83.89
2016-05-19T07:52:03.748Z,84.52
2016-05-19T07:53:03.578Z,84.23
2016-05-19T07:54:03.565Z,85.09
2016-05-19T07:55:03.708Z,84.8
2016-05-19T07:56:03.695Z,84.84
2016-05-19T07:57:03.698Z,84.42
2016-05-19T07:58:03.686Z,84.23
2016-05-19T07:59:03.657Z,85.09
2016-05-19T08:00:03.660Z,84.61
2016-05-19T08:01:03.631Z,83.98
2016-05-19T08:02:03.633Z,84.13
2016-05-19T08:03:03.621Z,84.46
2016-05-19T08:04:03.607Z,84.8
2016-05-19T08:05:03.594Z,84.89
2016-05-19T08:06:03.582Z,84.55
2016-05-19T08:07:03.569Z,85.09
2016-05-19T08:08:03.572Z,84.84
2016-05-19T08:09:03.388Z,84.08
2016-05-19T08:10:03.530Z,84.17
2016-05-19T08:11:03.518Z,83.6
2016-05-19T08:12:03.520Z,84.46
2016-05-19T08:13:03.507Z,83.98
2016-05-19T08:14:03.494Z,84.7
2016-05-19T08:15:03.481Z,84.75
2016-05-19T08:16:03.468Z,84.84
2016-05-19T08:17:03.471Z,84.36
2016-05-19T08:18:03.443Z,84.08
2016-05-19T08:19:03.429Z,83.69
2016-05-19T08:20:03.417Z,84.27
2016-05-19T08:21:03.247Z,84.17
2016-05-19T08:22:03.390Z,83.98
2016-05-19T08:23:03.378Z,83.31
2016-05-19T08:24:03.567Z,83.98
2016-05-19T08:25:03.367Z,83.6
2016-05-19T08:26:03.354Z,83.37
2016-05-19T08:27:03.341Z,83.79
2016-05-19T08:28:03.328Z,83.84
2016-05-19T08:29:03.159Z,83.75
2016-05-19T08:30:03.319Z,83.75
2016-05-19T08:31:03.133Z,83.75
2016-05-19T08:32:03.277Z,84.13
2016-05-19T08:33:03.264Z,83.84
2016-05-19T08:34:03.251Z,83.75
2016-05-19T08:35:03.239Z,83.37
2016-05-19T08:36:03.069Z,84.32
2016-05-19T08:37:03.228Z,83.84
2016-05-19T08:38:03.199Z,83.65
2016-05-19T08:39:03.311Z,84.23
2016-05-19T08:40:03.188Z,84.36
2016-05-19T08:41:03.176Z,84.32
2016-05-19T08:42:03.148Z,83.98
2016-05-19T08:43:03.151Z,83.4
2016-05-19T08:44:03.138Z,83.79
2016-05-19T08:45:03.124Z,83.6
2016-05-19T08:46:03.112Z,81.97
2016-05-19T08:47:03.098Z,81.97
2016-05-19T08:48:03.085Z,81.3
2016-05-19T08:49:03.087Z,81.4
2016-05-19T08:50:03.059Z,80.96
2016-05-19T08:51:03.062Z,80.77
2016-05-19T08:52:03.034Z,79.91
2016-05-19T08:53:03.239Z,80.58
2016-05-19T08:54:03.023Z,79.52
2016-05-19T08:55:03.167Z,79.72
2016-05-19T08:56:02.998Z,79.81
2016-05-19T08:57:02.828Z,80
2016-05-19T08:58:02.972Z,79.87
2016-05-19T08:59:02.958Z,80.73
2016-05-19T09:00:02.961Z,80.1
2016-05-19T09:01:02.949Z,80.77
2016-05-19T09:02:02.936Z,80.87
2016-05-19T09:03:02.923Z,79.43
2016-05-19T09:04:02.910Z,78.66
2016-05-19T09:05:02.741Z,78.66
2016-05-19T09:06:02.900Z,78.66
2016-05-19T09:07:02.730Z,78.7
2016-05-19T09:08:02.873Z,78.19
2016-05-19T09:09:03.001Z,78.95
2016-05-19T09:10:02.848Z,78.47
2016-05-19T09:11:02.851Z,78.38
2016-05-19T09:12:02.821Z,78.47
2016-05-19T09:13:02.825Z,78.95
2016-05-19T09:14:02.812Z,78.47
2016-05-19T09:15:02.814Z,79.52
2016-05-19T09:16:02.786Z,78.57
2016-05-19T09:17:02.773Z,78.86
2016-05-19T09:18:02.760Z,79.33
2016-05-19T09:19:02.747Z,78.38
2016-05-19T09:20:02.751Z,80
2016-05-19T09:21:02.737Z,80.1
2016-05-19T09:22:02.723Z,79.72
2016-05-19T09:23:02.711Z,80.19
2016-05-19T09:24:02.698Z,80.1
2016-05-19T09:25:02.685Z,79.87
2016-05-19T09:26:02.719Z,79.77
2016-05-19T09:27:02.659Z,80.35
2016-05-19T09:28:02.646Z,80.92
2016-05-19T09:29:02.633Z,79.87
2016-05-19T09:30:02.636Z,80.25
2016-05-19T09:31:02.623Z,79.68
2016-05-19T09:32:02.611Z,79.96
2016-05-19T09:33:02.597Z,80.35
2016-05-19T09:34:02.584Z,80.25
2016-05-19T09:35:02.571Z,79.87
2016-05-19T09:36:02.558Z,80.44
2016-05-19T09:37:02.545Z,79.68
2016-05-19T09:38:02.533Z,79.87
2016-05-19T09:39:02.520Z,79.87
2016-05-19T09:40:02.522Z,79.91
2016-05-19T09:41:02.510Z,79.72
2016-05-19T09:42:02.496Z,79.77
2016-05-19T09:43:02.483Z,79.87
2016-05-19T09:44:02.471Z,79.91
2016-05-19T09:45:02.457Z,78.57
2016-05-19T09:46:02.288Z,77.7
2016-05-19T09:47:02.432Z,78.38
2016-05-19T09:48:02.419Z,77.8
2016-05-19T09:49:02.421Z,77.51
2016-05-19T09:50:02.409Z,77.04
2016-05-19T09:51:02.380Z,77.17
2016-05-19T09:52:02.382Z,77.17
2016-05-19T09:53:02.370Z,76.6
2016-05-19T09:54:02.529Z,76.4
2016-05-19T09:55:02.359Z,76.4
2016-05-19T09:56:02.331Z,75.01
2016-05-19T09:57:02.334Z,74.15
2016-05-19T09:58:02.320Z,73.22
2016-05-19T09:59:02.151Z,73.41
2016-05-19T10:00:02.311Z,72.74
2016-05-19T10:01:02.281Z,71.4
2016-05-19T10:02:02.284Z,72.55
2016-05-19T10:03:02.287Z,72.64
2016-05-19T10:04:02.275Z,72.55
2016-05-19T10:05:02.246Z,72.64
2016-05-19T10:06:02.249Z,72.36
2016-05-19T10:07:02.236Z,71.5
2016-05-19T10:08:02.223Z,70.92
2016-05-19T10:09:02.225Z,71.56
2016-05-19T10:10:02.213Z,73.19
2016-05-19T10:11:02.199Z,72.71
2016-05-19T10:12:02.186Z,72.99
2016-05-19T10:13:02.174Z,72.23
2016-05-19T10:14:02.177Z,74.15
2016-05-19T10:15:02.163Z,73.95
2016-05-19T10:16:02.151Z,74.05
2016-05-19T10:17:02.138Z,73.28
2016-05-19T10:18:02.140Z,73.95
2016-05-19T10:19:02.127Z,73.47
2016-05-19T10:20:02.115Z,73.47
2016-05-19T10:21:02.102Z,71.31
2016-05-19T10:22:02.104Z,72.45
2016-05-19T10:23:02.091Z,72.99
2016-05-19T10:24:01.937Z,72.8
2016-05-19T10:25:02.065Z,72.71
2016-05-19T10:26:02.053Z,72.23
2016-05-19T10:27:02.056Z,72.52
2016-05-19T10:28:02.042Z,71.75
2016-05-19T10:29:02.029Z,73.28
2016-05-19T10:30:02.017Z,73.19
2016-05-19T10:31:02.003Z,72.23
2016-05-19T10:32:02.006Z,71.66
2016-05-19T10:33:01.993Z,72.71
2016-05-19T10:34:01.981Z,72.03
2016-05-19T10:35:01.967Z,72.42
2016-05-19T10:36:01.970Z,72.61
2016-05-19T10:37:01.972Z,72.99
2016-05-19T10:38:01.944Z,73.09
2016-05-19T10:39:01.791Z,71.94
2016-05-19T10:40:01.934Z,71.66
2016-05-19T10:41:01.780Z,72.61
2016-05-19T10:42:01.908Z,72.96
2016-05-19T10:43:01.895Z,73.15
2016-05-19T10:44:01.882Z,72.71
2016-05-19T10:45:01.885Z,73.44
2016-05-19T10:46:01.872Z,72.86
2016-05-19T10:47:01.860Z,72.96
2016-05-19T10:48:01.846Z,73.05
2016-05-19T10:49:01.833Z,73.05
2016-05-19T10:50:01.835Z,72.09
2016-05-19T10:51:01.823Z,72.23
2016-05-19T10:52:01.810Z,72.61
2016-05-19T10:53:01.797Z,70.98
2016-05-19T10:54:01.799Z,68.14
2016-05-19T10:55:01.771Z,67.5
2016-05-19T10:56:01.774Z,67.12
2016-05-19T10:57:01.761Z,67.69
2016-05-19T10:58:01.747Z,67.69
2016-05-19T10:59:01.735Z,67.32
2016-05-19T11:00:01.738Z,65.3
2016-05-19T11:01:01.725Z,64.66
2016-05-19T11:02:01.712Z,64.76
2016-05-19T11:03:01.542Z,65.05
2016-05-19T11:04:01.701Z,64.85
2016-05-19T11:05:01.688Z,63.73
2016-05-19T11:06:01.675Z,63.83
2016-05-19T11:07:01.678Z,64.37
2016-05-19T11:08:01.666Z,62.87
2016-05-19T11:09:01.669Z,63.92
2016-05-19T11:10:01.655Z,62.19
2016-05-19T11:11:01.641Z,59.86
2016-05-19T11:12:01.644Z,58.15
2016-05-19T11:13:01.633Z,57.2
2016-05-19T11:14:01.635Z,55.81
2016-05-19T11:15:01.466Z,53.88
2016-05-19T11:16:01.608Z,55.04
2016-05-19T11:17:01.611Z,55.35
2016-05-19T11:18:01.613Z,53.72
2016-05-19T11:19:01.616Z,54.03
2016-05-19T11:20:01.604Z,52.87
2016-05-19T11:21:01.607Z,52.37
2016-05-19T11:22:01.593Z,54.1
2016-05-19T11:23:01.596Z,54.49
2016-05-19T11:24:01.771Z,54.85
2016-05-19T11:25:01.587Z,55.9
2016-05-19T11:26:01.604Z,56.58
2016-05-19T11:27:01.576Z,56.26
2016-05-19T11:28:01.579Z,57.13
2016-05-19T11:29:01.566Z,58.15
2016-05-19T11:30:01.412Z,58.15
2016-05-19T11:31:01.556Z,58.8
2016-05-19T11:32:01.558Z,60.82
2016-05-19T11:33:01.576Z,61.84
2016-05-19T11:34:01.563Z,60.88
2016-05-19T11:35:01.550Z,61.94
2016-05-19T11:36:01.537Z,60.78
2016-05-19T11:37:01.540Z,60.98
2016-05-19T11:38:01.527Z,62.39
2016-05-19T11:39:01.530Z,62.96
2016-05-19T11:40:01.516Z,62.96
2016-05-19T11:41:01.504Z,63.06
2016-05-19T11:42:01.508Z,62.77
2016-05-19T11:43:01.494Z,63.45
2016-05-19T11:44:01.496Z,62.96
2016-05-19T11:45:01.483Z,63.6
2016-05-19T11:46:01.471Z,62.93
2016-05-19T11:47:01.512Z,63.12
2016-05-19T11:48:01.538Z,63.12
2016-05-19T11:49:01.581Z,63.89
2016-05-19T11:50:01.609Z,64.76
2016-05-19T11:51:01.636Z,64.18
2016-05-19T11:52:01.656Z,63.79
2016-05-19T11:53:01.657Z,62.19
2016-05-19T11:54:02.205Z,62.39
2016-05-19T11:55:01.676Z,62.1
2016-05-19T11:56:01.693Z,62.01
2016-05-19T11:57:01.670Z,62.32
2016-05-19T11:58:01.678Z,61.17
2016-05-19T11:59:01.546Z,58.89
2016-05-19T12:00:01.508Z,60.05
2016-05-19T12:01:01.688Z,61.58
2016-05-19T12:02:01.521Z,59.12
2016-05-19T12:03:01.665Z,56.33
2016-05-19T12:04:01.654Z,56.1
2016-05-19T12:05:01.659Z,53.81
2016-05-19T12:06:01.492Z,52.11
2016-05-19T12:07:01.651Z,51.46
2016-05-19T12:08:01.483Z,52.13
2016-05-19T12:09:01.705Z,53.29
2016-05-19T12:10:01.630Z,51.34
2016-05-19T12:11:01.634Z,51.24
2016-05-19T12:12:01.637Z,51.53
2016-05-19T12:13:01.624Z,52.66
2016-05-19T12:14:01.643Z,53.31
2016-05-19T12:15:01.662Z,52.83
2016-05-19T12:16:01.603Z,51.98
2016-05-19T12:17:01.621Z,51.02
2016-05-19T12:18:01.608Z,50.98
2016-05-19T12:19:01.439Z,49.82
2016-05-19T12:20:01.597Z,49.43
2016-05-19T12:21:01.599Z,47.31
2016-05-19T12:22:01.602Z,48.66
2016-05-19T12:23:01.480Z,49.43
2016-05-19T12:24:01.437Z,49.22
2016-05-19T12:25:01.423Z,49.87
2016-05-19T12:26:01.582Z,49.58
2016-05-19T12:27:01.585Z,50.15
2016-05-19T12:28:01.573Z,50.51
2016-05-19T12:29:01.575Z,51.19
2016-05-19T12:30:01.578Z,51.57
2016-05-19T12:31:01.565Z,52.99
2016-05-19T12:32:01.568Z,52.89
2016-05-19T12:33:01.570Z,54.91
2016-05-19T12:34:01.557Z,55.4
2016-05-19T12:35:01.544Z,56.84
2016-05-19T12:36:01.562Z,52.8
2016-05-19T12:37:01.378Z,51.93
2016-05-19T12:38:01.521Z,51.74
2016-05-19T12:39:01.492Z,52.03
2016-05-19T12:40:01.714Z,52.8
2016-05-19T12:41:01.514Z,51.26
2016-05-19T12:42:01.517Z,50.97
2016-05-19T12:43:01.534Z,51.64
2016-05-19T12:44:01.506Z,52.12
2016-05-19T12:45:01.493Z,51.64
2016-05-19T12:46:01.480Z,52.22
2016-05-19T12:47:01.483Z,51.74
2016-05-19T12:48:01.501Z,52.42
2016-05-19T12:49:01.504Z,51.93
2016-05-19T12:50:01.475Z,51.35
2016-05-19T12:51:01.463Z,52.51
2016-05-19T12:52:01.293Z,52.89
2016-05-19T12:53:01.452Z,51.55
2016-05-19T12:54:01.768Z,51.26
2016-05-19T12:55:01.441Z,51.07
2016-05-19T12:56:01.273Z,52.12